Time;durP1;ratioP1;P1;durP2;ratioP2;P2;SDS_P1;SDS_P2;PMS_P1;PMS_P2;Temp;Humidity;BMP_temperature;BMP_pressure;BME280_temperature;BME280_humidity;BME280_pressure;Samples;Min_cycle;Max_cycle;Signal;HPM_P1;HPM_P2
2022/09/11 00:02:04;;;;;;;24.45;9.52;;;;;;;8.55;76.22;100140.94;5069407;28;20032;-46
2022/09/11 00:04:32;;;;;;;28.67;10.10;;;;;;;8.54;76.48;100140.97;5066890;28;20530;-53
2022/09/11 00:06:58;;;;;;;22.27;9.65;;;;;;;8.50;76.31;100142.78;5069259;28;20538;-49
2022/09/11 00:09:24;;;;;;;22.48;9.82;;;;;;;8.46;76.63;100128.16;5069433;28;20052;-50
2022/09/11 00:11:50;;;;;;;23.02;10.40;;;;;;;8.46;76.70;100154.94;5068064;28;20040;-51
2022/09/11 00:14:16;;;;;;;25.73;10.80;;;;;;;8.41;76.68;100143.81;5071803;28;20040;-46
2022/09/11 00:16:45;;;;;;;23.45;10.10;;;;;;;8.41;76.75;100148.13;5068559;28;20071;-47
2022/09/11 00:19:14;;;;;;;21.67;10.10;;;;;;;8.37;76.83;100143.88;5063992;28;20114;-50
2022/09/11 00:21:40;;;;;;;;;;;;;;;8.33;77.03;100139.63;5067557;28;20041;-47
2022/09/11 00:24:08;;;;;;;37.70;10.80;;;;;;;8.27;76.86;100144.91;5069369;28;19923;-51
2022/09/11 00:26:35;;;;;;;20.80;9.63;;;;;;;8.23;77.04;100146.69;5068763;28;20113;-52
2022/09/11 00:29:02;;;;;;;26.85;10.20;;;;;;;8.19;77.29;100150.22;5064858;28;20040;-51
2022/09/11 00:31:29;;;;;;;23.67;10.15;;;;;;;8.03;77.39;100133.22;5068633;28;20052;-52
2022/09/11 00:33:55;;;;;;;29.17;10.48;;;;;;;8.15;77.82;100147.69;5066779;28;20048;-48
2022/09/11 00:36:27;;;;;;;19.75;10.25;;;;;;;8.11;77.78;100140.88;5068235;28;20051;-53
2022/09/11 00:38:55;;;;;;;26.73;10.55;;;;;;;8.09;77.83;100140.88;5058270;28;20186;-50
2022/09/11 00:41:23;;;;;;;22.00;10.75;;;;;;;8.07;78.19;100148.66;5036600;28;20084;-51
2022/09/11 00:44:16;;;;;;;27.23;12.20;;;;;;;8.02;78.39;100147.03;5065945;28;20044;-46
2022/09/11 00:47:10;;;;;;;23.90;10.48;;;;;;;8.00;78.51;100144.50;5029474;28;20491;-47
2022/09/11 00:49:42;;;;;;;23.80;10.77;;;;;;;7.97;78.12;100136.75;5060109;28;20048;-47
2022/09/11 00:52:18;;;;;;;24.63;10.82;;;;;;;7.97;78.20;100139.34;5067511;28;20117;-46
2022/09/11 00:54:51;;;;;;;29.50;11.38;;;;;;;7.96;78.31;100139.38;5067846;28;20097;-49
2022/09/11 00:57:20;;;;;;;29.73;12.45;;;;;;;7.93;78.33;100135.13;5067517;28;20060;-49
2022/09/11 00:59:47;;;;;;;27.55;11.10;;;;;;;7.95;78.38;100146.31;5067461;28;20048;-47
2022/09/11 01:02:16;;;;;;;28.63;12.10;;;;;;;7.91;78.49;100141.19;5067545;28;20174;-47
2022/09/11 01:04:42;;;;;;;25.80;11.10;;;;;;;7.59;78.42;100089.91;5044237;28;20137;-46
2022/09/11 01:07:10;;;;;;;24.23;12.00;;;;;;;7.85;79.02;100139.53;5030987;28;20405;-47
2022/09/11 01:09:36;;;;;;;35.40;13.00;;;;;;;7.80;78.93;100143.09;5050403;28;20041;-46
2022/09/11 01:12:02;;;;;;;28.70;12.48;;;;;;;7.82;79.37;100143.91;5066748;28;20415;-48
2022/09/11 01:14:35;;;;;;;27.15;11.85;;;;;;;7.79;79.38;100142.25;5066126;28;20159;-48
2022/09/11 01:17:28;;;;;;;32.88;11.95;;;;;;;7.77;79.50;100141.41;5068464;28;20032;-51
2022/09/11 01:20:27;;;;;;;27.85;11.88;;;;;;;7.76;79.43;100144.00;5029531;28;20091;-52
2022/09/11 01:23:04;;;;;;;34.85;12.82;;;;;;;7.72;79.69;100144.94;5002978;28;20131;-49
2022/09/11 01:26:07;;;;;;;25.70;12.32;;;;;;;7.68;79.52;100144.16;5067345;28;20047;-46
2022/09/11 01:28:56;;;;;;;23.90;12.20;;;;;;;7.67;79.84;100142.44;5056553;28;20041;-50
2022/09/11 01:31:25;;;;;;;26.42;12.02;;;;;;;7.63;79.63;100133.88;5049576;28;20076;-47
2022/09/11 01:34:04;;;;;;;32.55;13.40;;;;;;;7.59;80.26;100139.94;5047430;28;20091;-50
2022/09/11 01:36:52;;;;;;;27.88;13.45;;;;;;;7.56;79.63;100127.06;5030883;28;20428;-52
2022/09/11 01:39:21;;;;;;;35.47;14.27;;;;;;;7.56;79.77;100134.81;5030713;28;20106;-52
2022/09/11 01:41:52;;;;;;;28.42;13.93;;;;;;;7.56;80.05;100136.56;5040870;28;20052;-51
2022/09/11 01:44:26;;;;;;;41.00;14.65;;;;;;;7.53;80.48;100129.72;5033261;28;20069;-45
2022/09/11 01:46:53;;;;;;;35.17;14.48;;;;;;;7.53;80.50;100131.44;5066443;28;20032;-51
2022/09/11 01:49:41;;;;;;;29.70;15.07;;;;;;;7.52;80.18;100127.13;5065900;28;20470;-50
2022/09/11 01:52:09;;;;;;;33.78;14.95;;;;;;;7.48;80.67;100126.34;5068020;28;20117;-51
2022/09/11 01:54:41;;;;;;;28.30;14.60;;;;;;;7.43;80.89;100116.94;5062242;28;20039;-47
2022/09/11 01:57:12;;;;;;;31.83;14.35;;;;;;;7.29;81.14;100098.16;5063001;28;20173;-48
2022/09/11 01:59:44;;;;;;;31.45;14.10;;;;;;;7.42;81.34;100117.81;5033306;28;20140;-47
2022/09/11 02:02:12;;;;;;;32.00;14.00;;;;;;;7.39;80.79;100123.88;5048203;28;20040;-47
2022/09/11 02:04:42;;;;;;;29.45;14.18;;;;;;;7.37;81.18;100127.38;5046034;28;20420;-47
2022/09/11 02:07:40;;;;;;;33.70;14.05;;;;;;;7.34;81.65;100111.88;5052693;28;20073;-48
2022/09/11 02:10:09;;;;;;;33.63;13.48;;;;;;;7.34;81.99;100129.97;5043023;28;20083;-48
2022/09/11 02:13:17;;;;;;;26.98;13.55;;;;;;;7.32;81.93;100129.16;5034946;28;20041;-47
2022/09/11 02:15:49;;;;;;;24.10;12.60;;;;;;;7.31;82.05;100130.03;4957467;28;20510;-46
2022/09/11 02:18:25;;;;;;;37.17;13.70;;;;;;;7.30;81.72;100126.59;5023653;28;20053;-52
2022/09/11 02:20:52;;;;;;;28.63;12.77;;;;;;;7.32;81.81;100129.16;5067120;28;20040;-48
2022/09/11 02:23:19;;;;;;;28.88;13.10;;;;;;;7.27;81.74;100118.88;5063372;28;20466;-48
2022/09/11 02:25:45;;;;;;;30.50;12.75;;;;;;;7.28;81.78;100128.34;5069836;28;20511;-48
2022/09/11 02:28:11;;;;;;;32.75;13.77;;;;;;;7.14;82.42;100107.84;5069977;28;20047;-50
2022/09/11 02:30:41;;;;;;;26.02;12.27;;;;;;;7.26;82.38;100127.50;5055133;28;20044;-53
2022/09/11 02:33:31;;;;;;;30.55;12.77;;;;;;;7.24;82.84;100119.78;5066681;28;20470;-46
2022/09/11 02:36:10;;;;;;;28.25;12.90;;;;;;;7.24;82.76;100126.66;5070473;28;20127;-51
2022/09/11 02:39:14;;;;;;;24.92;12.18;;;;;;;7.22;82.87;100123.28;5053841;28;20044;-47
2022/09/11 02:41:50;;;;;;;30.83;14.32;;;;;;;7.19;82.85;100120.72;4987980;28;20040;-54
2022/09/11 02:44:20;;;;;;;27.75;13.43;;;;;;;7.19;82.64;100121.56;5068768;28;20055;-52
2022/09/11 02:47:04;;;;;;;33.50;13.25;;;;;;;7.18;83.24;100117.25;5066033;28;20603;-53
2022/09/11 02:49:42;;;;;;;35.10;12.93;;;;;;;7.18;82.92;100117.25;5070398;28;20049;-50
2022/09/11 02:52:46;;;;;;;27.85;11.60;;;;;;;7.20;83.23;100119.84;5069856;28;20072;-51
2022/09/11 02:55:44;;;;;;;24.17;12.18;;;;;;;7.19;83.03;100112.94;5053100;28;20047;-51
2022/09/11 02:58:11;;;;;;;30.17;12.73;;;;;;;7.17;82.96;100115.53;5057908;28;20075;-47
2022/09/11 03:00:38;;;;;;;32.13;12.10;;;;;;;7.17;83.25;100115.53;5068602;28;20048;-47
2022/09/11 03:03:05;;;;;;;24.85;12.82;;;;;;;7.19;83.15;100115.53;5069487;28;20024;-48
2022/09/11 03:05:31;;;;;;;22.85;12.43;;;;;;;7.20;83.02;100112.06;5061415;28;20045;-51
2022/09/11 03:07:57;;;;;;;29.90;12.50;;;;;;;6.94;83.08;100070.22;5061141;28;20039;-49
2022/09/11 03:10:23;;;;;;;31.58;13.48;;;;;;;7.24;82.79;100108.56;5069825;28;20547;-49
2022/09/11 03:12:49;;;;;;;30.00;12.77;;;;;;;7.26;82.66;100105.97;5063372;28;20144;-47
2022/09/11 03:15:16;;;;;;;28.52;12.43;;;;;;;7.26;82.67;100103.38;5064140;28;20136;-51
2022/09/11 03:17:42;;;;;;;29.33;13.07;;;;;;;7.27;82.74;100111.13;5068281;28;20047;-52
2022/09/11 03:20:08;;;;;;;30.95;13.38;;;;;;;7.28;83.02;100105.06;5069737;28;20037;-54
2022/09/11 03:22:33;;;;;;;26.60;12.75;;;;;;;7.32;82.95;100101.56;5069305;28;20062;-49
2022/09/11 03:24:59;;;;;;;28.30;13.02;;;;;;;7.35;82.52;100103.25;5047152;28;20044;-50
2022/09/11 03:27:30;;;;;;;24.60;12.80;;;;;;;7.38;82.50;100104.03;5033469;28;20037;-48
2022/09/11 03:29:56;;;;;;;26.15;12.90;;;;;;;7.38;82.75;100106.63;5066969;28;20040;-50
2022/09/11 03:32:22;;;;;;;29.73;12.35;;;;;;;7.39;82.44;100097.13;5057541;28;20044;-49
2022/09/11 03:34:48;;;;;;;25.60;13.35;;;;;;;7.43;82.80;100104.00;5068890;28;20040;-48
2022/09/11 03:37:14;;;;;;;31.95;13.10;;;;;;;7.28;82.81;100068.84;5052756;28;20466;-49
2022/09/11 03:39:42;;;;;;;30.63;13.07;;;;;;;7.47;82.62;100093.56;5058884;28;20040;-49
2022/09/11 03:42:11;;;;;;;24.63;12.93;;;;;;;7.39;82.90;100072.13;5049061;28;20049;-47
2022/09/11 03:44:37;;;;;;;29.40;13.50;;;;;;;7.42;82.78;100079.88;5066793;28;20036;-48
2022/09/11 03:47:04;;;;;;;29.17;12.63;;;;;;;7.58;82.45;100086.50;5058602;28;20545;-50
2022/09/11 03:49:30;;;;;;;29.63;13.18;;;;;;;7.62;82.70;100098.50;5049310;28;20448;-46
2022/09/11 03:51:56;;;;;;;33.83;13.07;;;;;;;7.63;82.36;100095.06;5049161;28;20037;-48
2022/09/11 03:54:22;;;;;;;28.58;14.30;;;;;;;7.67;82.37;100093.25;5064688;28;20053;-50
2022/09/11 03:56:49;;;;;;;28.23;12.88;;;;;;;7.72;82.29;100100.94;5068999;28;20048;-53
2022/09/11 03:59:15;;;;;;;25.52;12.40;;;;;;;7.77;81.99;100101.72;5069019;28;20530;-50
2022/09/11 04:01:43;;;;;;;24.63;12.48;;;;;;;7.81;81.88;100099.06;5068244;28;20044;-51
2022/09/11 04:04:08;;;;;;;32.25;13.32;;;;;;;7.87;81.56;100098.09;5069120;28;20170;-53
2022/09/11 04:06:39;;;;;;;31.02;13.32;;;;;;;7.92;81.62;100099.75;5069015;28;20063;-47
2022/09/11 04:09:05;;;;;;;28.50;13.15;;;;;;;7.93;81.08;100085.91;5079801;28;20051;-48
2022/09/11 04:11:34;;;;;;;28.30;13.10;;;;;;;7.88;80.95;100072.19;5050781;28;20036;-48
2022/09/11 04:14:02;;;;;;;31.50;13.32;;;;;;;8.08;81.19;100089.97;5047350;28;20049;-50
2022/09/11 04:16:31;;;;;;;31.13;13.88;;;;;;;8.15;80.78;100099.34;5068197;28;20041;-49
2022/09/11 04:19:01;;;;;;;29.70;13.23;;;;;;;8.07;80.75;100070.13;5069700;28;20048;-47
2022/09/11 04:21:27;;;;;;;28.27;13.48;;;;;;;8.27;80.33;100087.91;5069569;28;20042;-50
2022/09/11 04:23:55;;;;;;;31.92;15.88;;;;;;;8.36;80.06;100095.53;5066689;28;20097;-50
2022/09/11 04:26:25;;;;;;;36.30;14.85;;;;;;;8.46;79.77;100099.66;5068388;28;20520;-48
2022/09/11 04:28:57;;;;;;;39.75;13.95;;;;;;;8.56;79.08;100095.16;5065068;28;20045;-51
2022/09/11 04:31:25;;;;;;;34.78;14.20;;;;;;;8.66;78.56;100102.72;5052883;28;20144;-50
2022/09/11 04:33:52;;;;;;;34.72;14.40;;;;;;;8.76;78.05;100096.47;5051137;28;20051;-48
2022/09/11 04:36:18;;;;;;;35.28;14.05;;;;;;;8.89;77.62;100091.91;5067573;28;20499;-53
2022/09/11 04:38:45;;;;;;;36.78;15.73;;;;;;;9.03;77.05;100096.78;5049311;28;20055;-48
2022/09/11 04:41:14;;;;;;;39.80;17.33;;;;;;;9.16;76.36;100099.06;5069470;28;20048;-49
2022/09/11 04:43:40;;;;;;;35.30;16.58;;;;;;;9.28;75.99;100092.75;5077040;28;20123;-45
2022/09/11 04:46:13;;;;;;;37.47;15.05;;;;;;;9.42;75.74;100090.69;5074435;28;20036;-52
2022/09/11 04:48:44;;;;;;;33.80;15.98;;;;;;;9.55;74.90;100092.13;5050136;28;20044;-51
2022/09/11 04:51:20;;;;;;;38.38;15.07;;;;;;;9.63;74.31;100086.75;5067475;28;20052;-47
2022/09/11 04:53:47;;;;;;;32.40;14.73;;;;;;;9.78;74.09;100088.97;5050667;28;20374;-50
2022/09/11 04:56:13;;;;;;;29.27;13.70;;;;;;;9.92;73.46;100089.47;5071442;28;20058;-50
2022/09/11 04:58:44;;;;;;;38.15;13.40;;;;;;;10.03;72.71;100084.00;5079089;28;20044;-51
2022/09/11 05:01:13;;;;;;;34.72;14.82;;;;;;;10.08;72.67;100074.34;5066782;28;20427;-47
2022/09/11 05:03:42;;;;;;;31.60;14.25;;;;;;;10.25;71.95;100090.41;5067233;28;20052;-48
2022/09/11 05:06:11;;;;;;;28.10;12.57;;;;;;;10.37;71.40;100097.84;5049367;28;20033;-48
2022/09/11 05:08:37;;;;;;;26.33;13.63;;;;;;;10.49;70.40;100089.72;5050784;28;20135;-48
2022/09/11 05:11:05;;;;;;;31.23;13.48;;;;;;;10.60;69.55;100087.69;5034128;28;20287;-48
2022/09/11 05:13:34;;;;;;;31.60;14.00;;;;;;;10.72;69.17;100098.66;5067812;28;20044;-51
2022/09/11 05:16:04;;;;;;;;;;;;;;;10.82;68.88;100092.28;5067381;28;20036;-47
2022/09/11 05:18:30;;;;;;;28.60;14.90;;;;;;;10.91;68.94;100092.00;5049378;28;19973;-46
2022/09/11 05:21:04;;;;;;;33.38;12.98;;;;;;;11.02;67.67;100090.81;5065411;28;20048;-48
2022/09/11 05:23:31;;;;;;;34.03;13.70;;;;;;;11.16;67.95;100082.56;5066823;28;20036;-51
2022/09/11 05:26:00;;;;;;;34.05;13.73;;;;;;;11.30;66.93;100087.38;5066946;28;20040;-49
2022/09/11 05:28:28;;;;;;;29.10;13.65;;;;;;;11.25;66.04;100058.84;5047502;28;20109;-51
2022/09/11 05:30:57;;;;;;;27.33;13.90;;;;;;;11.57;66.53;100086.47;5064834;28;20043;-53
2022/09/11 05:33:25;;;;;;;36.63;15.00;;;;;;;11.70;66.36;100085.19;5053406;28;20098;-51
2022/09/11 05:35:53;;;;;;;25.85;12.25;;;;;;;11.88;65.89;100086.38;5045491;28;20036;-51
2022/09/11 05:38:22;;;;;;;24.45;12.63;;;;;;;12.06;65.20;100085.75;5065888;28;20048;-47
2022/09/11 05:40:52;;;;;;;31.02;13.48;;;;;;;12.29;64.62;100082.38;5066549;28;20061;-49
2022/09/11 05:43:21;;;;;;;29.98;12.38;;;;;;;12.51;64.16;100085.91;5066503;28;20098;-49
2022/09/11 05:45:56;;;;;;;28.30;11.57;;;;;;;12.78;63.08;100078.84;5049710;28;20123;-50
2022/09/11 05:48:26;;;;;;;31.20;11.52;;;;;;;12.82;61.50;100043.06;5050425;28;20055;-49
2022/09/11 05:50:54;;;;;;;26.08;10.80;;;;;;;13.26;59.66;100086.59;5058228;28;20119;-47
2022/09/11 05:53:21;;;;;;;24.52;10.73;;;;;;;13.72;57.95;100075.16;5065801;28;20519;-48
2022/09/11 05:55:48;;;;;;;22.27;10.57;;;;;;;14.41;56.60;100083.59;5049282;28;20516;-48
2022/09/11 05:58:17;;;;;;;;;;;;;;;15.20;53.88;100074.75;5079165;28;20124;-46
2022/09/11 06:00:46;;;;;;;29.98;11.65;;;;;;;16.03;52.57;100075.06;5052762;28;19917;-49
2022/09/11 06:03:14;;;;;;;15.55;7.35;;;;;;;16.76;49.01;100071.28;5070717;28;20573;-49
2022/09/11 06:05:40;;;;;;;16.23;7.85;;;;;;;17.28;46.82;100069.28;5070737;28;20409;-47
2022/09/11 06:08:07;;;;;;;20.17;8.27;;;;;;;17.99;45.43;100059.97;5070319;28;20041;-46
2022/09/11 06:10:46;;;;;;;16.48;8.02;;;;;;;18.94;42.77;100068.25;5050875;28;20806;-48
2022/09/11 06:13:16;;;;;;;15.82;6.63;;;;;;;19.22;41.25;100056.78;5055585;28;20040;-48
2022/09/11 06:15:44;;;;;;;11.48;5.63;;;;;;;19.72;39.92;100064.09;5052932;28;20074;-49
2022/09/11 06:18:10;;;;;;;12.48;6.13;;;;;;;20.14;39.02;100070.97;5051116;28;20041;-47
2022/09/11 06:20:36;;;;;;;13.63;6.15;;;;;;;20.04;37.90;100062.81;5052875;28;20032;-49
2022/09/11 06:23:03;;;;;;;11.85;5.90;;;;;;;20.05;37.19;100061.84;5052836;28;20040;-50
2022/09/11 06:25:29;;;;;;;9.40;5.78;;;;;;;20.48;36.39;100058.94;5071603;28;20402;-52
2022/09/11 06:27:55;;;;;;;10.55;6.53;;;;;;;20.75;35.90;100057.03;5069451;28;20040;-50
2022/09/11 06:30:21;;;;;;;15.85;6.32;;;;;;;21.52;34.82;100061.16;5068930;28;20480;-49
2022/09/11 06:32:47;;;;;;;20.38;7.05;;;;;;;21.55;34.05;100047.72;5068448;28;20109;-50
2022/09/11 06:35:13;;;;;;;11.95;5.88;;;;;;;21.72;33.03;100051.78;5070177;28;20036;-54
2022/09/11 06:37:39;;;;;;;17.17;6.80;;;;;;;21.98;33.08;100054.16;5066331;28;20041;-52
2022/09/11 06:40:07;;;;;;;11.15;5.18;;;;;;;22.45;32.19;100052.34;5070031;28;20117;-54
2022/09/11 06:42:34;;;;;;;11.20;5.80;;;;;;;22.77;31.73;100044.53;5054552;28;20091;-52
2022/09/11 06:45:01;;;;;;;17.88;5.97;;;;;;;23.37;31.00;100049.41;5064019;28;20132;-53
2022/09/11 06:47:30;;;;;;;12.57;5.45;;;;;;;23.70;30.27;100045.00;5063145;28;20182;-54
2022/09/11 06:49:56;;;;;;;8.80;4.95;;;;;;;23.80;30.09;100056.53;5069898;28;20033;-48
2022/09/11 06:52:24;;;;;;;8.52;4.53;;;;;;;24.27;29.30;100047.25;5059863;28;20044;-52
2022/09/11 06:55:06;;;;;;;11.75;4.40;;;;;;;24.29;29.19;100062.06;5069563;28;20036;-51
2022/09/11 06:57:32;;;;;;;8.43;4.30;;;;;;;24.33;29.01;100044.06;5069684;28;20044;-50
2022/09/11 06:59:58;;;;;;;13.98;4.68;;;;;;;24.71;28.23;100054.03;5070709;28;20041;-47
2022/09/11 07:02:25;;;;;;;8.60;3.90;;;;;;;24.33;28.02;100057.34;5065864;28;20123;-52
2022/09/11 07:04:52;;;;;;;7.45;3.75;;;;;;;23.11;29.06;100048.88;5068256;28;20071;-49
2022/09/11 07:07:20;;;;;;;4.60;3.10;;;;;;;23.20;29.17;100047.25;5069874;28;20032;-48
2022/09/11 07:09:47;;;;;;;8.98;3.42;;;;;;;23.21;28.86;100010.00;5054634;28;20053;-51
2022/09/11 07:12:13;;;;;;;6.15;3.20;;;;;;;24.06;28.15;100047.22;5052156;28;20464;-53
2022/09/11 07:14:40;;;;;;;6.05;3.63;;;;;;;24.16;27.93;100036.66;5049863;28;20603;-53
2022/09/11 07:17:14;;;;;;;6.07;3.40;;;;;;;24.59;27.57;100047.97;5073933;28;20464;-52
2022/09/11 07:19:42;;;;;;;6.25;3.70;;;;;;;23.95;27.87;100012.75;5049554;28;20037;-54
2022/09/11 07:22:09;;;;;;;6.35;2.78;;;;;;;24.13;27.36;100039.59;5058041;28;20089;-56
2022/09/11 07:24:35;;;;;;;4.18;3.25;;;;;;;24.53;26.86;100034.38;5050750;28;20044;-52
2022/09/11 07:27:00;;;;;;;9.18;3.85;;;;;;;24.79;26.37;100031.13;5055993;28;20123;-53
2022/09/11 07:29:31;;;;;;;7.65;3.97;;;;;;;24.82;26.02;100016.69;5050421;28;20779;-53
2022/09/11 07:31:57;;;;;;;5.20;3.67;;;;;;;24.77;26.19;100027.75;5047935;28;20409;-49
2022/09/11 07:34:24;;;;;;;5.13;3.40;;;;;;;25.53;25.75;100020.94;5070929;28;20052;-52
2022/09/11 07:36:50;;;;;;;7.95;3.25;;;;;;;26.15;24.94;100017.81;5067485;28;20098;-51
2022/09/11 07:39:17;;;;;;;5.13;2.90;;;;;;;25.70;25.01;100019.41;5069257;28;20064;-54
2022/09/11 07:41:49;;;;;;;5.22;3.13;;;;;;;25.05;25.32;100022.69;5066344;28;20052;-51
2022/09/11 07:44:22;;;;;;;7.82;3.33;;;;;;;25.18;25.20;100009.97;5069476;28;20041;-48
2022/09/11 07:47:11;;;;;;;6.20;3.30;;;;;;;25.00;25.25;100009.78;5052319;28;20119;-58
2022/09/11 07:49:45;;;;;;;5.35;3.65;;;;;;;24.61;25.27;100010.59;5042483;28;20044;-54
2022/09/11 07:52:12;;;;;;;4.80;3.60;;;;;;;23.34;26.52;100006.38;5033061;28;20049;-51
2022/09/11 07:54:43;;;;;;;7.40;4.15;;;;;;;22.18;27.75;100010.28;5037724;28;20036;-51
2022/09/11 07:57:10;;;;;;;5.65;3.30;;;;;;;21.98;28.41;99998.56;5051848;28;20071;-51
2022/09/11 07:59:37;;;;;;;7.88;3.63;;;;;;;22.46;27.80;100005.47;5069236;28;20055;-47
2022/09/11 08:02:04;;;;;;;4.60;2.95;;;;;;;23.06;27.38;100007.75;5068283;28;20048;-50
2022/09/11 08:04:30;;;;;;;4.80;3.20;;;;;;;23.16;27.09;100011.34;5066494;28;20032;-50
2022/09/11 08:06:56;;;;;;;3.58;2.88;;;;;;;23.15;27.28;100002.53;5069178;28;20404;-50
2022/09/11 08:09:28;;;;;;;5.30;2.72;;;;;;;23.31;26.89;100007.44;5053177;28;20040;-50
2022/09/11 08:12:00;;;;;;;5.22;2.78;;;;;;;22.97;27.14;100001.41;5051854;28;20492;-48
2022/09/11 08:14:27;;;;;;;3.70;2.90;;;;;;;22.64;27.16;99994.28;5052232;28;20131;-49
2022/09/11 08:16:57;;;;;;;3.63;2.85;;;;;;;22.11;27.94;99989.69;5068166;28;20051;-51
2022/09/11 08:19:25;;;;;;;;;;;;;;;22.19;27.97;99990.75;5068777;28;20508;-53
2022/09/11 08:21:54;;;;;;;;;;;;;;;22.39;27.96;99994.53;5056539;28;19916;-49
2022/09/11 08:24:21;;;;;;;8.75;2.83;;;;;;;22.77;27.69;99987.06;5039816;28;20339;-49
2022/09/11 08:26:50;;;;;;;8.27;3.25;;;;;;;23.37;27.32;99988.38;5068825;28;20043;-52
2022/09/11 08:29:17;;;;;;;6.32;2.90;;;;;;;23.73;26.80;99981.00;5065743;28;20131;-51
2022/09/11 08:31:44;;;;;;;7.05;3.03;;;;;;;24.80;25.79;99976.13;5061096;28;20136;-50
2022/09/11 08:34:11;;;;;;;4.73;3.80;;;;;;;24.92;24.68;99990.16;5052212;28;20850;-49
2022/09/11 08:36:38;;;;;;;6.15;3.03;;;;;;;24.57;25.17;99980.78;5068310;28;20291;-54
2022/09/11 08:39:05;;;;;;;4.15;2.92;;;;;;;24.91;24.70;99977.84;5067354;28;20044;-52
2022/09/11 08:42:07;;;;;;;8.65;3.50;;;;;;;24.79;24.62;99969.94;5052694;28;20094;-51
2022/09/11 08:44:55;;;;;;;7.78;3.47;;;;;;;24.60;24.93;99945.13;5051842;28;20135;-51
2022/09/11 08:47:34;;;;;;;4.25;3.40;;;;;;;23.55;26.17;99962.97;5066990;28;20063;-52
2022/09/11 08:50:08;;;;;;;8.35;3.80;;;;;;;22.94;26.86;99969.81;5068670;28;20044;-53
2022/09/11 08:52:35;;;;;;;6.68;3.58;;;;;;;22.40;27.56;99959.94;5046819;28;20056;-51
2022/09/11 08:55:02;;;;;;;6.35;3.78;;;;;;;21.90;28.33;99965.66;5065118;28;20127;-49
2022/09/11 08:57:47;;;;;;;5.60;3.53;;;;;;;21.77;28.45;99957.81;5078060;28;20396;-51
2022/09/11 09:00:19;;;;;;;9.40;3.72;;;;;;;21.90;28.95;99963.00;5068226;28;20051;-53
2022/09/11 09:03:05;;;;;;;7.47;3.92;;;;;;;22.20;28.51;99952.72;5051729;28;20071;-48
2022/09/11 09:05:45;;;;;;;7.88;3.78;;;;;;;22.36;28.46;99961.16;5048106;28;20520;-50
2022/09/11 09:08:48;;;;;;;6.28;3.60;;;;;;;22.67;28.32;99971.97;5075552;28;20115;-50
2022/09/11 09:11:35;;;;;;;6.47;3.50;;;;;;;23.08;27.75;99969.50;5066959;28;20048;-51
2022/09/11 09:14:39;;;;;;;10.65;3.45;;;;;;;23.15;27.43;99959.25;5062892;28;20041;-47
2022/09/11 09:17:14;;;;;;;6.22;3.10;;;;;;;23.40;27.10;99968.69;5059283;28;20495;-49
2022/09/11 09:20:11;;;;;;;5.85;3.30;;;;;;;23.17;27.11;99966.13;5064277;28;20040;-49
2022/09/11 09:22:58;;;;;;;7.72;3.03;;;;;;;23.03;26.97;99960.28;5064680;28;20028;-52
2022/09/11 09:25:26;;;;;;;13.15;3.15;;;;;;;22.56;27.60;99943.69;5066232;28;21609;-47
2022/09/11 09:27:54;;;;;;;7.45;3.15;;;;;;;22.56;27.89;99962.22;5032594;28;20036;-49
2022/09/11 09:30:23;;;;;;;10.13;2.80;;;;;;;22.45;27.93;99948.16;5065620;28;20416;-53
2022/09/11 09:33:00;;;;;;;7.88;3.40;;;;;;;22.55;27.92;99957.91;5050197;28;20066;-47
2022/09/11 09:35:40;;;;;;;4.63;2.90;;;;;;;22.91;27.28;99937.41;5050939;28;20045;-49
2022/09/11 09:38:11;;;;;;;4.32;2.72;;;;;;;22.87;27.50;99968.63;5036330;28;20063;-52
2022/09/11 09:40:43;;;;;;;6.18;2.97;;;;;;;22.86;27.64;99950.19;5051035;28;20040;-54
2022/09/11 09:43:28;;;;;;;4.30;2.83;;;;;;;23.11;27.27;99957.81;5051034;28;20113;-50
2022/09/11 09:46:03;;;;;;;4.78;2.95;;;;;;;23.19;27.08;99955.38;5068457;28;20547;-47
2022/09/11 09:48:32;;;;;;;8.32;2.92;;;;;;;23.67;26.48;99931.06;5051240;28;20040;-47
2022/09/11 09:50:58;;;;;;;6.85;3.30;;;;;;;24.84;25.69;99932.31;5063973;28;20040;-50
2022/09/11 09:53:35;;;;;;;8.25;3.08;;;;;;;25.00;25.18;99947.75;5050263;28;20578;-51
2022/09/11 09:56:03;;;;;;;10.55;3.20;;;;;;;25.00;25.04;99937.13;5066751;28;20090;-51
2022/09/11 09:58:37;;;;;;;5.45;2.85;;;;;;;25.14;24.80;99942.03;5067639;28;20049;-54
2022/09/11 10:01:26;;;;;;;6.10;2.88;;;;;;;24.61;24.86;99944.97;5062510;28;20041;-46
2022/09/11 10:04:10;;;;;;;7.57;2.92;;;;;;;24.53;24.60;99941.31;5053942;28;20032;-46
2022/09/11 10:06:36;;;;;;;7.28;2.58;;;;;;;24.20;24.99;99947.75;5066306;28;20052;-46
2022/09/11 10:09:02;;;;;;;8.63;2.95;;;;;;;24.34;24.99;99942.91;5067829;28;20094;-50
2022/09/11 10:11:28;;;;;;;4.05;2.58;;;;;;;24.21;25.17;99952.09;5065073;28;20032;-45
2022/09/11 10:13:54;;;;;;;5.53;2.88;;;;;;;23.00;26.11;99949.91;5058434;28;20126;-45
2022/09/11 10:16:25;;;;;;;6.97;2.70;;;;;;;22.03;27.49;99934.69;5048048;28;20067;-45
2022/09/11 10:18:54;;;;;;;5.13;2.55;;;;;;;21.52;28.22;99940.31;5049115;28;20045;-53
2022/09/11 10:21:34;;;;;;;9.30;2.90;;;;;;;21.22;28.50;99929.38;5056419;28;20571;-47
2022/09/11 10:24:21;;;;;;;4.90;2.47;;;;;;;20.95;29.32;99947.22;5066996;28;20127;-48
2022/09/11 10:26:52;;;;;;;3.65;2.63;;;;;;;20.68;29.68;99931.56;5066099;28;20048;-50
2022/09/11 10:29:26;;;;;;;4.68;2.50;;;;;;;20.76;29.67;99939.81;5065379;28;20527;-46
2022/09/11 10:32:01;;;;;;;4.18;2.58;;;;;;;20.45;29.92;99920.03;5064056;28;20068;-48
2022/09/11 10:34:34;;;;;;;6.60;2.58;;;;;;;20.52;30.11;99937.09;5063557;28;20036;-47
2022/09/11 10:37:03;;;;;;;7.50;2.78;;;;;;;20.42;30.40;99927.31;5063960;28;20044;-47
2022/09/11 10:39:31;;;;;;;8.88;2.88;;;;;;;20.73;30.19;99933.91;5066006;28;20090;-47
2022/09/11 10:42:04;;;;;;;4.68;2.35;;;;;;;20.24;30.55;99908.31;5070324;28;20075;-49
2022/09/11 10:44:30;;;;;;;4.07;2.53;;;;;;;20.02;30.92;99937.16;5066422;28;20040;-46
2022/09/11 10:47:14;;;;;;;5.88;2.80;;;;;;;19.95;31.25;99912.13;5071664;28;20040;-48
2022/09/11 10:49:41;;;;;;;5.28;2.78;;;;;;;20.10;31.10;99925.09;5069572;28;20066;-45
2022/09/11 10:52:07;;;;;;;5.18;2.50;;;;;;;20.04;31.36;99932.63;5070614;28;20040;-47
2022/09/11 10:54:58;;;;;;;5.07;2.58;;;;;;;19.91;31.70;99922.06;5070859;28;20504;-47
2022/09/11 10:57:43;;;;;;;4.78;2.55;;;;;;;19.69;32.12;99922.69;5070390;28;20109;-50
2022/09/11 11:00:26;;;;;;;3.42;2.30;;;;;;;19.71;32.21;99923.44;5067023;28;20036;-47
2022/09/11 11:03:15;;;;;;;5.22;2.40;;;;;;;19.82;31.97;99922.69;5068279;28;20494;-49
2022/09/11 11:06:06;;;;;;;3.53;2.28;;;;;;;19.72;32.18;99916.34;5050920;28;20080;-51
2022/09/11 11:09:08;;;;;;;4.07;2.20;;;;;;;19.48;32.45;99916.22;5050580;28;20040;-45
2022/09/11 11:11:54;;;;;;;4.53;1.83;;;;;;;19.17;33.01;99917.38;5042289;28;20523;-45
2022/09/11 11:14:36;;;;;;;3.38;2.30;;;;;;;19.14;33.04;99908.84;5060829;28;20041;-46
2022/09/11 11:17:41;;;;;;;3.70;2.40;;;;;;;19.29;33.01;99908.66;5059860;28;20040;-45
2022/09/11 11:20:33;;;;;;;4.72;2.65;;;;;;;19.46;32.94;99904.94;5009189;28;20046;-44
2022/09/11 11:23:11;;;;;;;3.38;2.22;;;;;;;19.40;32.94;99881.59;5054788;28;20060;-49
2022/09/11 11:25:58;;;;;;;3.80;2.53;;;;;;;19.65;32.94;99905.38;5053924;28;20040;-49
2022/09/11 11:28:34;;;;;;;14.60;6.93;;;;;;;19.93;32.83;99892.94;5061749;28;20135;-47
2022/09/11 11:31:24;;;;;;;5.57;2.72;;;;;;;20.02;32.50;99887.84;5058145;28;20595;-47
2022/09/11 11:33:56;;;;;;;7.45;2.67;;;;;;;19.76;32.60;99897.56;5057396;28;20618;-49
2022/09/11 11:36:34;;;;;;;4.93;2.20;;;;;;;19.56;32.89;99892.81;5061591;28;20508;-47
2022/09/11 11:39:31;;;;;;;5.35;2.65;;;;;;;19.87;32.64;99887.13;5055394;28;20044;-49
2022/09/11 11:42:24;;;;;;;6.10;2.50;;;;;;;19.73;32.78;99891.66;5053801;28;20131;-46
2022/09/11 11:44:59;;;;;;;3.92;2.60;;;;;;;19.49;32.98;99882.78;5052562;28;20044;-46
2022/09/11 11:47:30;;;;;;;3.97;2.05;;;;;;;19.41;32.93;99880.63;5054507;28;20463;-49
2022/09/11 11:50:02;;;;;;;4.68;2.42;;;;;;;19.07;33.35;99891.72;5055892;28;20055;-48